Woodhull, New York
Current Conditions -  °F | °C
As of 12:55 PM on Friday 24 Oct 2014 (Local Time) from KN38 Reporting Station
Clear Clear  
Wind Chill: 59°   Ceiling: Unl
Heat Index: 59°   Visibility: 10mi
Dew Point: 27°   Wind: 14mph
Humidity: 29%   Direction: 330°NNW
Pressure: 29.95"   Gusts: NA
Location:  42.08°N, 77.4°W
Report Text: KN38 241655Z AUTO 33012KT 10SM CLR 15/M03 A2995 RMK AO2
Loading
Personal Weather Stations






























Interactive Weather Map
Tropical Storm Tracking
New forecast layout! Learn more

10-Day Weather Forecast

Advertisements
Track Severe Weather on mobile